createdAt,value
2019-02-28T00:02:30.696Z,100962.78
2019-02-28T00:07:34.105Z,100962.78
2019-02-28T00:12:37.538Z,100960.62
2019-02-28T00:17:43.596Z,100960.58
2019-02-28T00:22:49.279Z,100965.68
2019-02-28T00:27:52.682Z,100946.12
2019-02-28T00:32:59.335Z,100942.25
2019-02-28T00:38:01.586Z,100941.32
2019-02-28T00:43:05.121Z,100931.45
2019-02-28T00:48:08.550Z,100924.94
2019-02-28T00:53:11.989Z,100918.45
2019-02-28T00:58:15.416Z,100907.16
2019-02-28T01:03:18.834Z,100907.55
2019-02-28T01:08:22.816Z,100906.67
2019-02-28T01:13:28.099Z,100906.19
2019-02-28T01:18:34.472Z,100903.17
2019-02-28T01:23:36.858Z,100896.27
2019-02-28T01:28:40.284Z,100884.98
2019-02-28T01:33:43.709Z,100873.70
2019-02-28T01:38:47.146Z,100870.67
2019-02-28T01:43:50.569Z,100868.53
2019-02-28T01:48:54.522Z,100860.70
2019-02-28T01:53:58.478Z,100856.75
2019-02-28T01:59:01.924Z,100857.22
2019-02-28T02:04:05.406Z,100854.59
2019-02-28T02:09:11.083Z,100857.24
2019-02-28T02:14:13.966Z,100855.95
2019-02-28T02:19:18.491Z,100847.33
2019-02-28T02:24:24.391Z,100848.23
2019-02-28T02:29:27.990Z,100831.88
2019-02-28T02:34:31.527Z,100821.03
2019-02-28T02:39:34.964Z,100813.27
2019-02-28T02:44:38.393Z,100809.37
2019-02-28T02:49:41.851Z,100810.17
2019-02-28T02:54:45.282Z,100806.23
2019-02-28T02:59:48.694Z,100805.74
2019-02-28T03:04:57.966Z,100806.60
2019-02-28T03:09:57.277Z,100800.91
2019-02-28T03:15:00.706Z,100797.81
2019-02-28T03:20:07.543Z,100791.70
2019-02-28T03:25:13.587Z,100779.14
2019-02-28T03:30:27.695Z,100780.44
2019-02-28T03:35:24.567Z,100773.39
2019-02-28T03:40:27.989Z,100774.17
2019-02-28T03:45:35.178Z,100765.55
2019-02-28T03:50:36.616Z,100762.53
2019-02-28T03:55:41.532Z,100759.89
2019-02-28T04:00:45.199Z,100757.65
2019-02-28T04:05:48.616Z,100754.98
2019-02-28T04:10:54.793Z,100749.69
2019-02-28T04:16:08.518Z,100745.31
2019-02-28T04:21:02.359Z,100740.20
2019-02-28T04:26:05.807Z,100743.20
2019-02-28T04:31:09.236Z,100740.70
2019-02-28T04:36:12.657Z,100749.34
2019-02-28T04:41:16.087Z,100746.03
2019-02-28T04:46:19.545Z,100744.76
2019-02-28T04:51:22.963Z,100737.41
2019-02-28T04:56:26.418Z,100737.34
2019-02-28T05:01:29.842Z,100727.80
2019-02-28T05:06:33.274Z,100718.70
2019-02-28T05:11:36.709Z,100709.65
2019-02-28T05:16:40.135Z,100718.23
2019-02-28T05:21:43.550Z,100733.22
2019-02-28T05:26:46.974Z,100728.42
2019-02-28T05:31:50.394Z,100740.05
2019-02-28T05:36:53.836Z,100737.41
2019-02-28T05:41:57.322Z,100734.45
2019-02-28T05:47:00.717Z,100718.12
2019-02-28T05:52:04.134Z,100709.56
2019-02-28T05:57:08.227Z,100701.53
2019-02-28T06:02:12.450Z,100712.87
2019-02-28T06:07:15.968Z,100710.31
2019-02-28T06:12:19.402Z,100718.53
2019-02-28T06:17:23.593Z,100716.38
2019-02-28T06:22:27.012Z,100710.30
2019-02-28T06:27:30.431Z,100706.12
2019-02-28T06:32:33.887Z,100698.88
2019-02-28T06:37:38.280Z,100703.67
2019-02-28T06:42:43.565Z,100716.73
2019-02-28T06:47:49.519Z,100719.02
2019-02-28T06:52:52.922Z,100729.14
2019-02-28T06:57:58.965Z,100730.11
2019-02-28T07:03:03.340Z,100730.59
2019-02-28T07:08:06.670Z,100739.22
2019-02-28T07:13:11.858Z,100752.20
2019-02-28T07:18:18.869Z,100749.99
2019-02-28T07:23:22.205Z,100754.69
2019-02-28T07:28:25.740Z,100746.05
2019-02-28T07:33:29.174Z,100747.73
2019-02-28T07:38:32.602Z,100743.47
2019-02-28T07:43:36.031Z,100748.70
2019-02-28T07:48:39.468Z,100735.39
2019-02-28T07:53:42.885Z,100720.38
2019-02-28T07:58:46.316Z,100731.22
2019-02-28T08:03:49.758Z,100743.43
2019-02-28T08:08:53.282Z,100735.34
2019-02-28T08:13:56.726Z,100728.57
2019-02-28T08:19:00.151Z,100737.70
2019-02-28T08:24:05.532Z,100736.91
2019-02-28T08:29:11.603Z,100740.86
2019-02-28T08:34:14.037Z,100735.31
2019-02-28T08:39:17.867Z,100720.64
2019-02-28T08:44:23.836Z,100723.66
2019-02-28T08:49:26.417Z,100733.20
2019-02-28T08:54:29.833Z,100737.94
2019-02-28T08:59:33.275Z,100725.31
2019-02-28T09:04:41.217Z,100726.55
2019-02-28T09:09:41.888Z,100725.61
2019-02-28T09:14:45.323Z,100726.89
2019-02-28T09:19:48.762Z,100714.93
2019-02-28T09:24:52.222Z,100704.27
2019-02-28T09:29:55.675Z,100695.77
2019-02-28T09:34:59.083Z,100702.53
2019-02-28T09:40:02.520Z,100709.04
2019-02-28T09:45:09.086Z,100705.08
2019-02-28T09:50:15.312Z,100715.86
2019-02-28T09:55:18.821Z,100713.38
2019-02-28T10:00:23.607Z,100707.08
2019-02-28T10:05:27.077Z,100694.42
2019-02-28T10:10:32.281Z,100690.80
2019-02-28T10:15:38.753Z,100694.82
2019-02-28T10:20:41.584Z,100696.47
2019-02-28T10:25:45.795Z,100694.06
2019-02-28T10:30:50.116Z,100690.03
2019-02-28T10:35:54.403Z,100687.55
2019-02-28T10:40:57.845Z,100691.61
2019-02-28T10:46:01.269Z,100679.53
2019-02-28T10:51:12.906Z,100677.97
2019-02-28T10:56:10.495Z,100669.41
2019-02-28T11:01:14.212Z,100671.31
2019-02-28T11:06:17.656Z,100667.37
2019-02-28T11:11:21.244Z,100653.03
2019-02-28T11:16:24.715Z,100655.16
2019-02-28T11:21:29.884Z,100650.09
2019-02-28T11:26:34.023Z,100647.92
2019-02-28T11:31:37.464Z,100654.42
2019-02-28T11:36:40.919Z,100656.00
2019-02-28T11:41:44.391Z,100667.45
2019-02-28T11:46:47.977Z,100671.48
2019-02-28T11:51:53.045Z,100664.51
2019-02-28T11:56:56.573Z,100649.44
2019-02-28T12:02:00.073Z,100661.42
2019-02-28T12:07:03.488Z,100659.68
2019-02-28T12:12:07.327Z,100665.97
2019-02-28T12:17:12.251Z,100656.23
2019-02-28T12:22:15.675Z,100648.22
2019-02-28T12:27:19.191Z,100637.52
2019-02-28T12:32:22.715Z,100637.00
2019-02-28T12:37:26.191Z,100627.30
2019-02-28T12:42:31.615Z,100616.41
2019-02-28T12:47:34.876Z,100620.42
2019-02-28T12:52:38.330Z,100613.45
2019-02-28T12:57:41.859Z,100594.03
2019-02-28T13:02:47.117Z,100606.68
2019-02-28T13:07:50.852Z,100597.44
2019-02-28T13:13:05.232Z,100598.21
2019-02-28T13:17:59.474Z,100598.69
2019-02-28T13:23:02.937Z,100589.14
2019-02-28T13:28:07.955Z,100588.30
2019-02-28T13:33:14.965Z,100580.90
2019-02-28T13:38:19.141Z,100578.63
2019-02-28T13:43:22.846Z,100580.49
2019-02-28T13:48:32.997Z,100590.78
2019-02-28T13:53:31.949Z,100586.39
2019-02-28T13:58:35.493Z,100575.14
2019-02-28T14:03:42.265Z,100578.70
2019-02-28T14:08:46.236Z,100580.02
2019-02-28T14:13:49.432Z,100574.04
2019-02-28T14:18:54.639Z,100571.42
2019-02-28T14:23:59.124Z,100567.51
2019-02-28T14:29:02.837Z,100573.08
2019-02-28T14:34:06.479Z,100569.52
2019-02-28T14:39:11.589Z,100568.14
2019-02-28T14:44:15.182Z,100565.20
2019-02-28T14:49:20.346Z,100572.22
2019-02-28T14:54:24.700Z,100562.77
2019-02-28T14:59:31.236Z,100564.18
2019-02-28T15:04:34.088Z,100557.72
2019-02-28T15:09:37.541Z,100560.05
2019-02-28T15:14:43.225Z,100548.14
2019-02-28T15:19:46.283Z,100550.37
2019-02-28T15:24:49.982Z,100553.33
2019-02-28T15:29:55.499Z,100553.95
2019-02-28T15:34:58.782Z,100548.12
2019-02-28T15:40:02.283Z,100549.52
2019-02-28T15:45:07.859Z,100545.04
2019-02-28T15:50:16.324Z,100548.69
2019-02-28T15:55:19.893Z,100555.43
2019-02-28T16:00:25.955Z,100556.31
2019-02-28T16:05:29.511Z,100547.14
2019-02-28T16:10:35.055Z,100546.27
2019-02-28T16:15:38.536Z,100541.16
2019-02-28T16:20:41.986Z,100538.08
2019-02-28T16:25:46.802Z,100538.14
2019-02-28T16:30:50.777Z,100539.05
2019-02-28T16:35:54.230Z,100544.72
2019-02-28T16:41:00.730Z,100561.12
2019-02-28T16:46:02.837Z,100573.77
2019-02-28T16:51:06.271Z,100574.42
2019-02-28T16:56:09.849Z,100567.91
2019-02-28T17:01:13.350Z,100568.70
2019-02-28T17:06:16.980Z,100578.95
2019-02-28T17:11:20.429Z,100593.74
2019-02-28T17:16:25.674Z,100585.42
2019-02-28T17:21:29.154Z,100584.23
2019-02-28T17:26:42.847Z,100594.33
2019-02-28T17:31:49.326Z,100598.33
2019-02-28T17:36:52.884Z,100596.41
2019-02-28T17:41:56.307Z,100587.74
2019-02-28T17:47:29.468Z,100595.70
2019-02-28T17:52:41.627Z,100592.27
2019-02-28T17:57:48.729Z,100592.38
2019-02-28T18:03:17.723Z,100581.33
2019-02-28T18:08:37.482Z,100589.99
2019-02-28T18:13:55.267Z,100583.83
2019-02-28T18:19:21.472Z,100586.08
2019-02-28T18:24:34.716Z,100580.69
2019-02-28T18:29:58.205Z,100573.71
2019-02-28T18:35:01.630Z,100577.22
2019-02-28T18:40:07.390Z,100572.86
2019-02-28T18:45:12.183Z,100569.83
2019-02-28T18:50:15.664Z,100560.35
2019-02-28T18:55:19.068Z,100555.13
2019-02-28T19:00:23.127Z,100555.13
2019-02-28T19:05:27.490Z,100550.80
2019-02-28T19:10:30.994Z,100546.20
2019-02-28T19:15:34.507Z,100549.71
2019-02-28T19:20:37.915Z,100547.52
2019-02-28T19:25:41.464Z,100542.80
2019-02-28T19:30:44.998Z,100538.17
2019-02-28T19:35:48.468Z,100540.47
2019-02-28T19:40:51.909Z,100530.83
2019-02-28T19:45:56.292Z,100523.89
2019-02-28T19:50:59.775Z,100516.09
2019-02-28T19:56:03.205Z,100515.61
2019-02-28T20:01:06.748Z,100516.57
2019-02-28T20:06:10.201Z,100517.88
2019-02-28T20:11:13.656Z,100513.69
2019-02-28T20:16:17.275Z,100507.95
2019-02-28T20:21:20.684Z,100508.40
2019-02-28T20:26:24.177Z,100500.53
2019-02-28T20:31:27.840Z,100503.17
2019-02-28T20:36:31.359Z,100498.85
2019-02-28T20:41:34.749Z,100504.38
2019-02-28T20:46:38.283Z,100507.88
2019-02-28T20:51:41.698Z,100507.98
2019-02-28T20:56:45.139Z,100504.07
2019-02-28T21:01:48.545Z,100503.17
2019-02-28T21:06:51.965Z,100504.11
2019-02-28T21:11:55.406Z,100502.36
2019-02-28T21:16:59.059Z,100507.67
2019-02-28T21:22:02.477Z,100496.95
2019-02-28T21:27:06.254Z,100492.19
2019-02-28T21:32:09.682Z,100492.56
2019-02-28T21:37:13.145Z,100496.55
2019-02-28T21:42:16.642Z,100495.69
2019-02-28T21:47:20.048Z,100489.67
2019-02-28T21:52:23.497Z,100492.70
2019-02-28T21:57:26.919Z,100494.13
2019-02-28T22:02:30.337Z,100488.47
2019-02-28T22:07:33.802Z,100481.53
2019-02-28T22:12:37.258Z,100485.86
2019-02-28T22:17:40.703Z,100487.61
2019-02-28T22:22:44.198Z,100485.52
2019-02-28T22:27:47.628Z,100476.86
2019-02-28T22:32:52.710Z,100473.02
2019-02-28T22:37:56.148Z,100466.49
2019-02-28T22:42:59.590Z,100461.81
2019-02-28T22:48:03.084Z,100459.66
2019-02-28T22:53:06.588Z,100462.39
2019-02-28T22:58:13.216Z,100452.53
2019-02-28T23:03:16.615Z,100440.83
2019-02-28T23:08:20.116Z,100437.88
2019-02-28T23:13:23.580Z,100434.05
2019-02-28T23:18:27.020Z,100430.64
2019-02-28T23:23:30.440Z,100422.00
2019-02-28T23:28:36.824Z,100421.20
2019-02-28T23:33:40.264Z,100411.69
2019-02-28T23:38:43.714Z,100412.69
2019-02-28T23:43:47.157Z,100401.83
2019-02-28T23:48:50.613Z,100395.38
2019-02-28T23:53:54.041Z,100388.92
2019-02-28T23:58:57.472Z,100384.98
